METAR Data
IDs: Format: Raw Decoded Include TAF

Data at: 0831 UTC 01 Aug 2021

EPKT 010800Z 07007KT 9999 FEW028CB 18/14 Q1008